createdAt,value
2019-05-19T00:00:20.271Z,95873.49
2019-05-19T00:02:03.564Z,95872.05
2019-05-19T00:03:41.901Z,95889.14
2019-05-19T00:05:18.815Z,95889.40
2019-05-19T00:06:53.905Z,95880.94
2019-05-19T00:08:30.073Z,95880.33
2019-05-19T00:10:05.762Z,95880.14
2019-05-19T00:11:42.326Z,95879.95
2019-05-19T00:13:18.964Z,95885.69
2019-05-19T00:14:54.607Z,95879.45
2019-05-19T00:16:30.239Z,95884.21
2019-05-19T00:18:06.953Z,95884.03
2019-05-19T00:19:42.434Z,95884.39
2019-05-19T00:21:28.053Z,95884.39
2019-05-19T00:23:05.221Z,95893.36
2019-05-19T00:24:41.685Z,95891.66
2019-05-19T00:26:17.533Z,95897.57
2019-05-19T00:27:52.769Z,95898.80
2019-05-19T00:29:28.647Z,95904.45
2019-05-19T00:31:04.955Z,95907.75
2019-05-19T00:32:42.963Z,95908.97
2019-05-19T00:34:33.847Z,95915.67
2019-05-19T00:36:12.906Z,95909.64
2019-05-19T00:37:48.342Z,95911.42
2019-05-19T00:39:24.765Z,95922.97
2019-05-19T00:41:02.236Z,95918.20
2019-05-19T00:42:38.880Z,95917.88
2019-05-19T00:44:15.406Z,95923.81
2019-05-19T00:45:51.898Z,95921.87
2019-05-19T00:47:27.200Z,95922.70
2019-05-19T00:49:05.960Z,95927.18
2019-05-19T00:50:42.262Z,95923.45
2019-05-19T00:52:18.643Z,95937.22
2019-05-19T00:53:55.987Z,95940.70
2019-05-19T00:55:32.083Z,95946.30
2019-05-19T00:57:07.672Z,95949.94
2019-05-19T00:58:44.170Z,95953.77
2019-05-19T01:00:19.683Z,95958.04
2019-05-19T01:01:59.191Z,95960.09
2019-05-19T01:03:36.279Z,95967.75
2019-05-19T01:05:12.626Z,95970.94
2019-05-19T01:06:48.349Z,95970.34
2019-05-19T01:08:24.105Z,95967.36
2019-05-19T01:09:59.557Z,95968.45
2019-05-19T01:11:36.680Z,95975.47
2019-05-19T01:13:14.313Z,95975.33
2019-05-19T01:15:10.976Z,95978.06
2019-05-19T01:16:48.634Z,95976.84
2019-05-19T01:18:27.008Z,96001.77
2019-05-19T01:20:04.142Z,96007.22
2019-05-19T01:22:04.086Z,96012.22
2019-05-19T01:23:42.544Z,96016.66
2019-05-19T01:25:18.393Z,96031.04
2019-05-19T01:26:54.436Z,96036.66
2019-05-19T01:28:34.947Z,96035.61
2019-05-19T01:30:10.407Z,96039.41
2019-05-19T01:31:46.617Z,96038.98
2019-05-19T01:33:24.037Z,96033.38
2019-05-19T01:35:01.057Z,96038.22
2019-05-19T01:36:36.573Z,96041.11
2019-05-19T01:38:12.712Z,96047.48
2019-05-19T01:39:49.721Z,96051.13
2019-05-19T01:41:25.630Z,96056.14
2019-05-19T01:43:02.876Z,96058.41
2019-05-19T01:44:38.563Z,96063.12
2019-05-19T01:46:13.879Z,96062.06
2019-05-19T01:47:50.567Z,96061.03
2019-05-19T01:49:29.671Z,96064.37
2019-05-19T01:51:23.282Z,96065.16
2019-05-19T01:53:04.210Z,96064.70
2019-05-19T01:54:40.100Z,96067.27
2019-05-19T01:56:18.589Z,96065.33
2019-05-19T01:57:54.330Z,96067.30
2019-05-19T01:59:29.826Z,96066.53
2019-05-19T02:01:08.889Z,96067.30
2019-05-19T02:02:43.955Z,96072.44
2019-05-19T02:04:29.901Z,96078.66
2019-05-19T02:06:07.595Z,96086.52
2019-05-19T02:07:43.341Z,96094.72
2019-05-19T02:09:21.823Z,96094.72
2019-05-19T02:11:00.818Z,96095.93
2019-05-19T02:12:36.709Z,96085.03
2019-05-19T02:14:18.157Z,96087.30
2019-05-19T02:16:00.370Z,96174.69
2019-05-19T02:17:36.625Z,96183.17
2019-05-19T02:19:15.882Z,96170.75
2019-05-19T02:20:51.698Z,96170.59
2019-05-19T02:22:27.150Z,96163.77
2019-05-19T02:24:03.132Z,96162.55
2019-05-19T02:25:38.991Z,96158.91
2019-05-19T02:27:15.421Z,96152.53
2019-05-19T02:28:50.777Z,96156.31
2019-05-19T02:30:29.128Z,96153.16
2019-05-19T02:32:04.415Z,96160.27
2019-05-19T02:33:40.553Z,96157.99
2019-05-19T02:35:15.621Z,96162.09
2019-05-19T02:36:51.440Z,96165.27
2019-05-19T02:38:28.639Z,96169.97
2019-05-19T02:40:04.377Z,96165.57
2019-05-19T02:41:39.653Z,96172.38
2019-05-19T02:43:17.591Z,96170.70
2019-05-19T02:44:53.979Z,96167.39
2019-05-19T02:46:33.169Z,96164.50
2019-05-19T02:48:08.339Z,96169.36
2019-05-19T02:49:44.432Z,96171.94
2019-05-19T02:51:19.568Z,96173.45
2019-05-19T02:52:55.520Z,96176.64
2019-05-19T02:54:31.161Z,96179.81
2019-05-19T02:56:07.018Z,96186.03
2019-05-19T02:57:42.822Z,96182.40
2019-05-19T02:59:18.424Z,96183.02
2019-05-19T03:00:53.688Z,96184.97
2019-05-19T03:02:31.844Z,96198.77
2019-05-19T03:04:07.504Z,96208.02
2019-05-19T03:05:43.169Z,96215.02
2019-05-19T03:07:18.295Z,96215.46
2019-05-19T03:08:53.939Z,96216.34
2019-05-19T03:10:29.351Z,96213.89
2019-05-19T03:12:05.425Z,96212.67
2019-05-19T03:13:40.550Z,96217.70
2019-05-19T03:15:17.079Z,96218.43
2019-05-19T03:16:52.259Z,96227.35
2019-05-19T03:18:28.011Z,96229.61
2019-05-19T03:20:05.703Z,96230.69
2019-05-19T03:21:41.420Z,96228.09
2019-05-19T03:23:18.852Z,96221.30
2019-05-19T03:24:57.975Z,96224.78
2019-05-19T03:26:33.477Z,96217.94
2019-05-19T03:28:09.139Z,96220.98
2019-05-19T03:29:49.350Z,96217.97
2019-05-19T03:31:34.183Z,96215.08
2019-05-19T03:33:09.816Z,96217.97
2019-05-19T03:34:47.051Z,96220.64
2019-05-19T03:38:55.939Z,96215.48
2019-05-19T03:40:32.221Z,96218.80
2019-05-19T03:42:10.766Z,96217.60
2019-05-19T03:43:46.951Z,96219.28
2019-05-19T03:45:22.343Z,96217.44
2019-05-19T03:46:59.388Z,96215.73
2019-05-19T03:48:34.649Z,96224.42
2019-05-19T03:50:10.678Z,96227.14
2019-05-19T03:51:45.820Z,96230.80
2019-05-19T03:53:28.245Z,96238.42
2019-05-19T03:55:03.446Z,96241.59
2019-05-19T03:56:39.162Z,96247.52
2019-05-19T03:58:14.249Z,96240.99
2019-05-19T03:59:55.172Z,96251.43
2019-05-19T04:01:30.411Z,96244.61
2019-05-19T04:03:06.586Z,96242.04
2019-05-19T04:04:41.956Z,96250.86
2019-05-19T04:06:19.731Z,96264.97
2019-05-19T04:07:56.071Z,96268.03
2019-05-19T04:09:32.202Z,96267.14
2019-05-19T04:11:07.276Z,96269.71
2019-05-19T04:12:47.808Z,96272.60
2019-05-19T04:14:25.412Z,96273.20
2019-05-19T04:16:05.205Z,96278.50
2019-05-19T04:17:42.058Z,96277.16
2019-05-19T04:19:20.275Z,96276.88
2019-05-19T04:20:57.052Z,96274.91
2019-05-19T04:22:32.364Z,96278.89
2019-05-19T04:24:08.341Z,96273.91
2019-05-19T04:25:43.651Z,96272.69
2019-05-19T04:27:19.659Z,96274.84
2019-05-19T04:28:55.579Z,96273.03
2019-05-19T04:30:31.336Z,96268.78
2019-05-19T04:32:06.953Z,96277.42
2019-05-19T04:33:44.405Z,96271.20
2019-05-19T04:35:19.568Z,96269.69
2019-05-19T04:36:55.881Z,96262.39
2019-05-19T04:38:31.288Z,96262.39
2019-05-19T04:40:07.307Z,96262.55
2019-05-19T04:41:42.486Z,96257.21
2019-05-19T04:43:18.340Z,96247.05
2019-05-19T04:44:53.470Z,96240.94
2019-05-19T04:46:29.736Z,96233.80
2019-05-19T04:48:09.191Z,96240.30
2019-05-19T04:49:42.851Z,96233.62
2019-05-19T04:51:19.312Z,96237.23
2019-05-19T04:52:55.240Z,96230.27
2019-05-19T04:54:33.198Z,96221.91
2019-05-19T04:56:13.124Z,96217.16
2019-05-19T04:57:48.657Z,96213.16
2019-05-19T04:59:30.208Z,96201.43
2019-05-19T05:01:05.409Z,96195.44
2019-05-19T05:02:41.386Z,96185.50
2019-05-19T05:04:18.849Z,96174.78
2019-05-19T05:05:55.249Z,96157.70
2019-05-19T05:07:30.489Z,96153.52
2019-05-19T05:09:07.267Z,96136.72
2019-05-19T05:10:45.086Z,96124.59
2019-05-19T05:12:22.106Z,96116.61
2019-05-19T05:13:57.236Z,96099.46
2019-05-19T05:15:33.090Z,96088.40
2019-05-19T05:17:08.403Z,96082.77
2019-05-19T05:18:47.957Z,96065.52
2019-05-19T05:20:23.156Z,96054.34
2019-05-19T05:22:01.930Z,96030.50
2019-05-19T05:23:37.060Z,96016.28
2019-05-19T05:25:13.333Z,95998.56
2019-05-19T05:26:48.896Z,95996.33
2019-05-19T05:28:25.176Z,95970.19
2019-05-19T05:30:04.451Z,95961.95
2019-05-19T05:31:40.149Z,95952.91
2019-05-19T05:33:17.148Z,95937.54
2019-05-19T05:34:53.770Z,95926.13
2019-05-19T05:36:31.187Z,95917.50
2019-05-19T05:38:08.367Z,95903.96
2019-05-19T05:39:44.070Z,95904.69
2019-05-19T05:41:23.638Z,95886.44
2019-05-19T05:42:58.825Z,95884.27
2019-05-19T05:44:36.770Z,95867.19
2019-05-19T05:46:13.225Z,95865.51
2019-05-19T05:47:52.352Z,95852.94
2019-05-19T05:49:39.969Z,95851.36
2019-05-19T05:51:16.204Z,95846.59
2019-05-19T05:52:57.571Z,95840.87
2019-05-19T05:54:34.790Z,95827.48
2019-05-19T05:56:13.512Z,95832.72
2019-05-19T05:57:51.510Z,95821.61
2019-05-19T05:59:34.201Z,95822.67
2019-05-19T06:01:09.811Z,95817.30
2019-05-19T06:02:48.533Z,95816.58
2019-05-19T06:04:24.999Z,95815.61
2019-05-19T06:06:02.878Z,95815.08
2019-05-19T06:07:44.212Z,95812.40
2019-05-19T06:09:23.157Z,95813.91
2019-05-19T06:11:04.237Z,95810.20
2019-05-19T06:12:43.157Z,95808.82
2019-05-19T06:14:26.689Z,95809.48
2019-05-19T06:16:05.201Z,95806.75
2019-05-19T06:17:44.863Z,95802.99
2019-05-19T06:19:23.699Z,95803.89
2019-05-19T06:21:00.015Z,95797.04
2019-05-19T06:22:55.084Z,95798.28
2019-05-19T06:24:23.341Z,95805.80
2019-05-19T06:26:11.096Z,95800.79
2019-05-19T06:27:47.660Z,95794.13
2019-05-19T06:29:25.576Z,95791.48
2019-05-19T06:31:01.846Z,95792.71
2019-05-19T06:32:47.259Z,95793.69
2019-05-19T06:34:22.863Z,95794.11
2019-05-19T06:35:59.913Z,95796.43
2019-05-19T06:37:35.940Z,95789.62
2019-05-19T06:39:11.813Z,95784.80
2019-05-19T06:40:49.315Z,95786.45
2019-05-19T06:42:30.343Z,95782.08
2019-05-19T06:44:07.505Z,95779.55
2019-05-19T06:45:46.228Z,95775.38
2019-05-19T06:47:23.602Z,95759.03
2019-05-19T06:48:58.824Z,95756.39
2019-05-19T06:51:26.806Z,95757.21
2019-05-19T06:53:14.192Z,95757.96
2019-05-19T06:54:41.202Z,95756.42
2019-05-19T06:56:16.417Z,95763.80
2019-05-19T06:57:53.908Z,95761.55
2019-05-19T06:59:31.011Z,95759.23
2019-05-19T07:01:11.599Z,95752.30
2019-05-19T07:02:47.355Z,95754.40
2019-05-19T07:04:22.467Z,95758.90
2019-05-19T07:06:00.375Z,95751.52
2019-05-19T07:07:35.687Z,95754.18
2019-05-19T07:09:11.523Z,95750.25
2019-05-19T07:10:50.157Z,95741.59
2019-05-19T07:12:28.716Z,95742.50
2019-05-19T07:14:05.967Z,95741.81
2019-05-19T07:15:41.732Z,95742.57
2019-05-19T07:17:21.555Z,95747.59
2019-05-19T07:18:56.864Z,95747.37
2019-05-19T07:20:39.583Z,95754.80
2019-05-19T07:22:15.082Z,95748.23
2019-05-19T07:23:51.108Z,95752.81
2019-05-19T07:25:33.315Z,95753.34
2019-05-19T07:27:12.376Z,95756.72
2019-05-19T07:28:51.314Z,95751.72
2019-05-19T07:30:27.046Z,95749.80
2019-05-19T07:32:03.000Z,95750.25
2019-05-19T07:33:42.381Z,95754.33
2019-05-19T07:35:18.290Z,95754.86
2019-05-19T07:36:58.633Z,95751.72
2019-05-19T07:38:41.452Z,95747.36
2019-05-19T07:40:18.815Z,95753.87
2019-05-19T07:41:57.966Z,95749.73
2019-05-19T07:43:35.581Z,95753.97
2019-05-19T07:45:13.068Z,95744.77
2019-05-19T07:46:50.859Z,95748.95
2019-05-19T07:48:34.198Z,95751.47
2019-05-19T07:50:20.443Z,95749.75
2019-05-19T07:52:10.692Z,95752.09
2019-05-19T07:53:48.318Z,95739.84
2019-05-19T07:55:27.313Z,95740.06
2019-05-19T07:57:05.881Z,95746.72
2019-05-19T07:58:44.443Z,95746.76
2019-05-19T08:00:28.544Z,95737.48
2019-05-19T08:02:07.407Z,95732.88
2019-05-19T08:03:44.944Z,95730.91
2019-05-19T08:07:27.507Z,95744.71
2019-05-19T08:09:08.068Z,95749.66
2019-05-19T08:10:44.171Z,95748.34
2019-05-19T08:12:20.310Z,95748.59
2019-05-19T08:13:57.753Z,95724.73
2019-05-19T08:15:37.673Z,95713.41
2019-05-19T08:17:12.945Z,95717.86
2019-05-19T08:18:49.586Z,95727.80
2019-05-19T08:20:26.644Z,95729.08
2019-05-19T08:22:02.812Z,95741.31
2019-05-19T08:23:38.006Z,95737.16
2019-05-19T08:25:13.852Z,95749.87
2019-05-19T08:26:52.785Z,95745.83
2019-05-19T08:28:35.517Z,95752.33
2019-05-19T08:30:14.849Z,95754.22
2019-05-19T08:31:53.052Z,95754.47
2019-05-19T08:33:31.477Z,95757.14
2019-05-19T08:35:07.436Z,95760.47
2019-05-19T08:36:59.788Z,95757.34
2019-05-19T08:38:35.604Z,95756.66
2019-05-19T08:40:11.485Z,95761.38
2019-05-19T08:41:50.268Z,95756.84
2019-05-19T08:43:32.156Z,95752.19
2019-05-19T08:45:08.930Z,95757.00
2019-05-19T08:46:44.432Z,95757.59
2019-05-19T08:48:22.764Z,95761.98
2019-05-19T08:50:00.953Z,95753.57
2019-05-19T08:51:40.131Z,95755.02
2019-05-19T08:53:16.591Z,95753.60
2019-05-19T08:54:52.704Z,95756.35
2019-05-19T08:56:28.554Z,95754.63
2019-05-19T08:58:06.164Z,95752.91
2019-05-19T08:59:41.733Z,95750.97
2019-05-19T09:01:19.346Z,95752.25
2019-05-19T09:02:58.860Z,95748.18
2019-05-19T09:04:39.923Z,95752.89
2019-05-19T09:06:18.164Z,95746.26
2019-05-19T09:07:59.949Z,95746.42
2019-05-19T09:09:37.879Z,95752.17
2019-05-19T09:11:19.737Z,95747.59
2019-05-19T09:12:56.221Z,95745.64
2019-05-19T09:14:34.170Z,95747.63
2019-05-19T09:16:10.708Z,95748.75
2019-05-19T09:17:48.924Z,95751.09
2019-05-19T09:19:24.799Z,95749.37
2019-05-19T09:21:00.112Z,95742.57
2019-05-19T09:22:39.317Z,95742.83
2019-05-19T09:24:29.289Z,95741.67
2019-05-19T09:25:52.103Z,95734.25
2019-05-19T09:27:30.425Z,95737.05
2019-05-19T09:29:09.535Z,95736.28
2019-05-19T09:30:47.099Z,95732.44
2019-05-19T09:32:27.119Z,95736.70
2019-05-19T09:34:10.455Z,95734.31
2019-05-19T09:35:47.988Z,95734.79
2019-05-19T09:37:25.271Z,95729.58
2019-05-19T09:39:02.264Z,95733.31
2019-05-19T09:40:42.848Z,95732.98
2019-05-19T09:42:48.719Z,95729.45
2019-05-19T09:44:35.244Z,95730.01
2019-05-19T09:46:22.790Z,95733.41
2019-05-19T09:47:59.482Z,95727.41
2019-05-19T09:49:36.645Z,95729.49
2019-05-19T09:51:16.658Z,95725.10
2019-05-19T09:52:55.625Z,95723.64
2019-05-19T09:54:44.185Z,95721.66
2019-05-19T09:56:13.713Z,95722.55
2019-05-19T09:57:51.167Z,95721.42
2019-05-19T09:59:31.544Z,95720.25
2019-05-19T10:01:08.870Z,95720.98
2019-05-19T10:02:44.829Z,95721.86
2019-05-19T10:04:37.094Z,95721.68
2019-05-19T10:06:12.456Z,95716.63
2019-05-19T10:07:50.306Z,95711.34
2019-05-19T10:09:33.533Z,95706.17
2019-05-19T10:11:48.304Z,95704.17
2019-05-19T10:13:26.543Z,95718.53
2019-05-19T10:15:04.213Z,95723.62
2019-05-19T10:16:41.215Z,95725.39
2019-05-19T10:18:16.828Z,95721.96
2019-05-19T10:19:53.552Z,95722.20
2019-05-19T10:21:31.411Z,95708.60
2019-05-19T10:23:12.643Z,95711.23
2019-05-19T10:25:18.174Z,95709.31
2019-05-19T10:26:36.578Z,95715.70
2019-05-19T10:28:18.037Z,95715.91
2019-05-19T10:30:03.797Z,95713.06
2019-05-19T10:31:46.596Z,95710.13
2019-05-19T10:33:23.069Z,95718.98
2019-05-19T10:35:01.059Z,95702.18
2019-05-19T10:36:37.586Z,95716.03
2019-05-19T10:38:13.743Z,95715.77
2019-05-19T10:39:54.810Z,95711.72
2019-05-19T10:41:33.291Z,95716.29
2019-05-19T10:43:12.108Z,95710.33
2019-05-19T10:44:48.090Z,95711.38
2019-05-19T10:46:24.333Z,95705.41
2019-05-19T10:48:02.299Z,95706.59
2019-05-19T10:49:37.664Z,95707.88
2019-05-19T10:51:13.682Z,95700.28
2019-05-19T10:52:51.039Z,95701.26
2019-05-19T10:54:28.812Z,95699.42
2019-05-19T10:56:18.738Z,95704.66
2019-05-19T10:57:54.269Z,95702.39
2019-05-19T10:59:32.256Z,95704.11
2019-05-19T11:01:08.152Z,95703.75
2019-05-19T11:02:43.285Z,95708.89
2019-05-19T11:04:34.092Z,95708.91
2019-05-19T11:06:09.718Z,95712.77
2019-05-19T11:07:46.790Z,95710.12
2019-05-19T11:09:24.319Z,95708.80
2019-05-19T11:11:03.959Z,95702.31
2019-05-19T11:12:43.022Z,95697.67
2019-05-19T11:14:20.532Z,95699.67
2019-05-19T11:15:56.335Z,95705.08
2019-05-19T11:17:36.113Z,95712.83
2019-05-19T11:19:12.964Z,95725.72
2019-05-19T11:20:51.462Z,95728.83
2019-05-19T11:22:29.335Z,95742.44
2019-05-19T11:24:17.968Z,95743.43
2019-05-19T11:25:55.377Z,95752.97
2019-05-19T11:27:30.758Z,95762.98
2019-05-19T11:29:06.502Z,95771.85
2019-05-19T11:30:43.337Z,95784.72
2019-05-19T11:32:19.062Z,95796.61
2019-05-19T11:33:57.453Z,95805.36
2019-05-19T11:35:44.502Z,95814.75
2019-05-19T11:37:21.586Z,95815.38
2019-05-19T11:38:57.054Z,95818.53
2019-05-19T11:40:38.039Z,95829.47
2019-05-19T11:42:17.455Z,95838.22
2019-05-19T11:43:53.104Z,95851.42
2019-05-19T11:45:30.066Z,95854.28
2019-05-19T11:47:07.972Z,95846.87
2019-05-19T11:48:44.541Z,95844.95
2019-05-19T11:50:20.493Z,95841.70
2019-05-19T11:51:59.982Z,95837.20
2019-05-19T11:53:39.964Z,95830.34
2019-05-19T11:55:15.674Z,95827.22
2019-05-19T11:56:51.346Z,95823.78
2019-05-19T11:58:26.472Z,95827.41
2019-05-19T12:00:03.512Z,95817.67
2019-05-19T12:01:40.843Z,95809.13
2019-05-19T12:03:19.137Z,95792.05
2019-05-19T12:04:55.893Z,95780.47
2019-05-19T12:06:39.556Z,95778.16
2019-05-19T12:08:15.807Z,95768.69
2019-05-19T12:09:51.419Z,95776.17
2019-05-19T12:11:32.071Z,95779.50
2019-05-19T12:13:08.011Z,95783.22
2019-05-19T12:14:43.451Z,95785.91
2019-05-19T12:16:25.249Z,95788.92
2019-05-19T12:18:12.799Z,95777.61
2019-05-19T12:19:54.850Z,95786.03
2019-05-19T12:21:31.280Z,95780.73
2019-05-19T12:23:13.765Z,95781.38
2019-05-19T12:24:49.584Z,95783.63
2019-05-19T12:26:24.778Z,95786.25
2019-05-19T12:28:00.884Z,95784.39
2019-05-19T12:29:45.678Z,95787.23
2019-05-19T12:31:25.995Z,95788.42
2019-05-19T12:33:05.906Z,95798.41
2019-05-19T12:34:42.593Z,95810.77
2019-05-19T12:36:20.884Z,95806.09
2019-05-19T12:37:57.601Z,95819.16
2019-05-19T12:39:40.559Z,95823.53
2019-05-19T12:41:17.321Z,95821.09
2019-05-19T12:43:23.607Z,95814.96
2019-05-19T12:44:41.611Z,95823.89
2019-05-19T12:46:21.041Z,95821.64
2019-05-19T12:48:10.279Z,95830.96
2019-05-19T12:50:00.252Z,95831.59
2019-05-19T12:51:36.602Z,95832.27
2019-05-19T12:53:17.305Z,95836.58
2019-05-19T12:54:54.547Z,95839.46
2019-05-19T12:56:39.808Z,95839.97
2019-05-19T12:58:10.791Z,95836.47
2019-05-19T12:59:47.315Z,95841.81
2019-05-19T13:01:26.116Z,95837.06
2019-05-19T13:03:07.816Z,95845.31
2019-05-19T13:05:03.237Z,95841.14
2019-05-19T13:06:24.662Z,95848.81
2019-05-19T13:08:02.454Z,95852.85
2019-05-19T13:09:41.171Z,95847.09
2019-05-19T13:11:19.930Z,95850.42
2019-05-19T13:12:58.129Z,95855.81
2019-05-19T13:14:46.577Z,95850.94
2019-05-19T13:16:38.817Z,95847.38
2019-05-19T13:18:19.859Z,95848.86
2019-05-19T13:19:58.609Z,95850.45
2019-05-19T13:21:42.965Z,95847.48
2019-05-19T13:23:25.325Z,95847.78
2019-05-19T13:25:11.491Z,95846.41
2019-05-19T13:27:00.642Z,95848.23
2019-05-19T13:28:43.992Z,95842.20
2019-05-19T13:30:43.434Z,95845.42
2019-05-19T13:32:17.518Z,95848.72
2019-05-19T13:33:58.744Z,95848.55
2019-05-19T13:35:36.714Z,95842.45
2019-05-19T13:37:15.059Z,95835.20
2019-05-19T13:38:50.891Z,95832.47
2019-05-19T13:40:29.774Z,95826.50
2019-05-19T13:42:08.318Z,95809.55
2019-05-19T13:43:46.537Z,95810.64
2019-05-19T13:45:22.290Z,95810.64
2019-05-19T13:46:58.965Z,95803.33
2019-05-19T13:48:35.014Z,95801.87
2019-05-19T13:50:11.765Z,95800.59
2019-05-19T13:51:47.652Z,95795.25
2019-05-19T13:53:23.047Z,95789.91
2019-05-19T13:54:59.091Z,95784.26
2019-05-19T13:56:36.314Z,95789.93
2019-05-19T13:58:12.401Z,95784.61
2019-05-19T13:59:47.685Z,95789.31
2019-05-19T14:01:28.729Z,95798.31
2019-05-19T14:03:01.876Z,95791.70
2019-05-19T14:04:39.045Z,95788.98
2019-05-19T14:06:14.133Z,95796.19
2019-05-19T14:07:53.176Z,95795.17
2019-05-19T14:09:28.880Z,95794.98
2019-05-19T14:11:04.699Z,95795.95
2019-05-19T14:12:42.435Z,95795.23
2019-05-19T14:14:18.794Z,95798.64
2019-05-19T14:15:56.761Z,95794.64
2019-05-19T14:17:37.906Z,95793.17
2019-05-19T14:19:15.275Z,95799.91
2019-05-19T14:20:55.434Z,95794.42
2019-05-19T14:22:36.124Z,95798.27
2019-05-19T14:24:13.155Z,95797.66
2019-05-19T14:25:49.321Z,95797.20
2019-05-19T14:27:30.615Z,95796.41
2019-05-19T14:29:02.338Z,95787.70
2019-05-19T14:30:39.762Z,95799.69
2019-05-19T14:32:16.599Z,95785.70
2019-05-19T14:33:51.697Z,95790.02
2019-05-19T14:35:32.681Z,95795.03
2019-05-19T14:37:12.730Z,95798.38
2019-05-19T14:39:05.290Z,95794.44
2019-05-19T14:40:39.211Z,95792.30
2019-05-19T14:42:39.342Z,95793.59
2019-05-19T14:44:14.967Z,95793.20
2019-05-19T14:45:51.576Z,95792.48
2019-05-19T14:47:27.966Z,95788.97
2019-05-19T14:49:06.563Z,95788.75
2019-05-19T14:50:41.777Z,95784.12
2019-05-19T14:52:17.599Z,95785.25
2019-05-19T14:54:06.195Z,95780.88
2019-05-19T14:55:43.429Z,95782.00
2019-05-19T14:57:25.582Z,95770.95
2019-05-19T14:59:05.916Z,95780.35
2019-05-19T15:00:41.281Z,95773.69
2019-05-19T15:02:22.048Z,95769.58
2019-05-19T15:04:00.007Z,95769.72
2019-05-19T15:05:36.567Z,95764.86
2019-05-19T15:07:14.190Z,95762.83
2019-05-19T15:08:50.829Z,95760.20
2019-05-19T15:10:28.703Z,95755.84
2019-05-19T15:12:07.045Z,95752.16
2019-05-19T15:13:43.495Z,95747.55
2019-05-19T15:15:22.438Z,95747.67
2019-05-19T15:17:07.127Z,95740.03
2019-05-19T15:18:50.514Z,95748.67
2019-05-19T15:20:29.483Z,95742.20
2019-05-19T15:22:04.948Z,95740.16
2019-05-19T15:23:52.425Z,95744.16
2019-05-19T15:25:32.314Z,95740.41
2019-05-19T15:27:13.898Z,95733.39
2019-05-19T15:28:55.152Z,95732.37
2019-05-19T15:30:41.251Z,95729.66
2019-05-19T15:32:18.585Z,95730.27
2019-05-19T15:33:57.613Z,95728.63
2019-05-19T15:35:40.226Z,95722.12
2019-05-19T15:37:20.312Z,95712.88
2019-05-19T15:39:00.782Z,95716.63
2019-05-19T15:40:44.182Z,95709.73
2019-05-19T15:42:22.776Z,95697.47
2019-05-19T15:44:11.088Z,95701.38
2019-05-19T15:45:47.116Z,95695.34
2019-05-19T15:47:23.696Z,95691.98
2019-05-19T15:49:00.047Z,95696.50
2019-05-19T15:50:39.473Z,95699.09
2019-05-19T15:52:17.183Z,95690.48
2019-05-19T15:53:57.064Z,95698.73
2019-05-19T15:55:36.576Z,95699.88
2019-05-19T15:57:13.457Z,95699.61
2019-05-19T15:59:19.634Z,95700.59
2019-05-19T16:01:04.902Z,95693.07
2019-05-19T16:03:08.530Z,95690.91
2019-05-19T16:04:57.201Z,95680.77
2019-05-19T16:06:41.051Z,95683.14
2019-05-19T16:08:17.325Z,95680.64
2019-05-19T16:09:55.840Z,95677.17
2019-05-19T16:11:37.317Z,95673.41
2019-05-19T16:13:16.640Z,95664.59
2019-05-19T16:15:27.911Z,95665.06
2019-05-19T16:16:36.218Z,95663.25
2019-05-19T16:18:25.643Z,95663.25
2019-05-19T16:20:02.923Z,95659.97
2019-05-19T16:21:38.488Z,95657.17
2019-05-19T16:23:15.301Z,95663.47
2019-05-19T16:24:51.358Z,95656.16
2019-05-19T16:26:28.477Z,95652.15
2019-05-19T16:28:06.978Z,95647.02
2019-05-19T16:29:43.978Z,95645.16
2019-05-19T16:31:22.571Z,95638.82
2019-05-19T16:32:59.509Z,95638.08
2019-05-19T16:34:36.122Z,95640.38
2019-05-19T16:36:12.369Z,95627.87
2019-05-19T16:37:55.644Z,95628.38
2019-05-19T16:39:34.205Z,95631.21
2019-05-19T16:41:18.490Z,95627.11
2019-05-19T16:42:55.241Z,95628.19
2019-05-19T16:44:33.174Z,95628.64
2019-05-19T16:46:08.920Z,95627.31
2019-05-19T16:47:44.427Z,95626.16
2019-05-19T16:49:24.811Z,95623.70
2019-05-19T16:51:00.321Z,95616.83
2019-05-19T16:52:37.219Z,95620.71
2019-05-19T16:54:24.617Z,95618.59
2019-05-19T16:56:10.377Z,95624.00
2019-05-19T16:57:45.976Z,95628.66
2019-05-19T16:59:23.202Z,95632.64
2019-05-19T17:01:01.428Z,95637.12
2019-05-19T17:02:42.266Z,95634.64
2019-05-19T17:04:23.966Z,95634.98
2019-05-19T17:06:00.293Z,95633.44
2019-05-19T17:07:48.122Z,95642.61
2019-05-19T17:09:26.333Z,95637.52
2019-05-19T17:11:02.160Z,95639.20
2019-05-19T17:12:46.687Z,95644.78
2019-05-19T17:14:24.106Z,95645.45
2019-05-19T17:18:18.158Z,95635.04
2019-05-19T17:19:54.833Z,95639.75
2019-05-19T17:21:36.972Z,95638.75
2019-05-19T17:23:19.735Z,95638.70
2019-05-19T17:25:03.206Z,95634.45
2019-05-19T17:26:41.244Z,95634.13
2019-05-19T17:28:17.537Z,95630.23
2019-05-19T17:29:59.499Z,95630.33
2019-05-19T17:31:42.297Z,95633.67
2019-05-19T17:33:25.502Z,95631.59
2019-05-19T17:35:04.918Z,95624.55
2019-05-19T17:36:54.075Z,95627.95
2019-05-19T17:38:30.455Z,95628.66
2019-05-19T17:40:06.302Z,95626.92
2019-05-19T17:41:45.075Z,95628.39
2019-05-19T17:43:35.169Z,95635.53
2019-05-19T17:45:26.746Z,95634.41
2019-05-19T17:47:07.029Z,95639.48
2019-05-19T17:48:49.527Z,95639.86
2019-05-19T17:50:38.530Z,95638.82
2019-05-19T17:52:14.835Z,95638.50
2019-05-19T17:53:52.146Z,95642.22
2019-05-19T17:55:29.183Z,95641.05
2019-05-19T17:57:08.238Z,95643.27
2019-05-19T17:58:47.365Z,95640.50
2019-05-19T18:00:40.921Z,95639.62
2019-05-19T18:02:18.804Z,95638.73
2019-05-19T18:03:54.852Z,95641.64
2019-05-19T18:05:36.128Z,95633.33
2019-05-19T18:07:16.709Z,95640.70
2019-05-19T18:08:58.889Z,95641.14
2019-05-19T18:10:34.552Z,95641.95
2019-05-19T18:12:31.913Z,95647.91
2019-05-19T18:14:07.893Z,95645.34
2019-05-19T18:15:59.654Z,95648.78
2019-05-19T18:17:49.997Z,95653.71
2019-05-19T18:19:47.353Z,95651.77
2019-05-19T18:21:28.659Z,95654.66
2019-05-19T18:23:04.530Z,95653.43
2019-05-19T18:24:42.776Z,95660.83
2019-05-19T18:26:23.833Z,95660.94
2019-05-19T18:28:06.193Z,95662.70
2019-05-19T18:29:47.022Z,95668.09
2019-05-19T18:31:26.314Z,95666.34
2019-05-19T18:33:07.640Z,95671.56
2019-05-19T18:34:47.163Z,95671.20
2019-05-19T18:36:22.783Z,95677.81
2019-05-19T18:38:03.625Z,95678.09
2019-05-19T18:39:41.787Z,95681.31
2019-05-19T18:41:20.270Z,95692.70
2019-05-19T18:42:58.984Z,95691.82
2019-05-19T18:44:40.969Z,95702.33
2019-05-19T18:46:22.153Z,95709.57
2019-05-19T18:48:02.803Z,95710.20
2019-05-19T18:49:41.099Z,95718.94
2019-05-19T18:51:22.009Z,95716.69
2019-05-19T18:53:03.899Z,95712.05
2019-05-19T18:54:50.361Z,95718.89
2019-05-19T18:56:26.727Z,95721.24
2019-05-19T18:58:04.476Z,95730.12
2019-05-19T18:59:48.094Z,95740.30
2019-05-19T19:01:24.795Z,95752.80
2019-05-19T19:03:02.371Z,95760.88
2019-05-19T19:04:42.346Z,95765.23
2019-05-19T19:06:21.545Z,95770.95
2019-05-19T19:08:21.686Z,95766.80
2019-05-19T19:10:05.515Z,95759.55
2019-05-19T19:11:56.381Z,95754.25
2019-05-19T19:13:47.275Z,95753.49
2019-05-19T19:15:22.907Z,95767.98
2019-05-19T19:17:03.926Z,95761.83
2019-05-19T19:18:43.438Z,95759.78
2019-05-19T19:20:20.418Z,95759.47
2019-05-19T19:21:58.802Z,95754.45
2019-05-19T19:23:54.980Z,95765.16
2019-05-19T19:25:34.075Z,95757.96
2019-05-19T19:27:16.900Z,95766.67
2019-05-19T19:29:05.276Z,95771.63